sensor_id;sensor_type;location;lat;lon;timestamp;pressure;altitude;pressure_sealevel;temperature;humidity
9091;BME280;4581;42.416;25.598;2023-05-20T00:01:47;98517.16;;;17.67;62.06
9091;BME280;4581;42.416;25.598;2023-05-20T00:04:14;98516.47;;;17.71;60.75
9091;BME280;4581;42.416;25.598;2023-05-20T00:06:41;98513.31;;;17.74;61.46
9091;BME280;4581;42.416;25.598;2023-05-20T00:09:08;98502.22;;;17.69;62.15
9091;BME280;4581;42.416;25.598;2023-05-20T00:11:35;98512.53;;;17.67;62.11
9091;BME280;4581;42.416;25.598;2023-05-20T00:14:02;98516.53;;;17.65;61.73
9091;BME280;4581;42.416;25.598;2023-05-20T00:16:28;98507.69;;;17.69;61.77
9091;BME280;4581;42.416;25.598;2023-05-20T00:18:55;98517.34;;;17.65;62.50
9091;BME280;4581;42.416;25.598;2023-05-20T00:21:22;98507.13;;;17.61;61.33
9091;BME280;4581;42.416;25.598;2023-05-20T00:23:49;98510.66;;;17.61;61.47
9091;BME280;4581;42.416;25.598;2023-05-20T00:26:16;98509.03;;;17.60;61.33
9091;BME280;4581;42.416;25.598;2023-05-20T00:28:43;98500.63;;;17.55;62.46
9091;BME280;4581;42.416;25.598;2023-05-20T00:31:09;98496.44;;;17.59;61.88
9091;BME280;4581;42.416;25.598;2023-05-20T00:33:36;98487.63;;;17.57;62.88
9091;BME280;4581;42.416;25.598;2023-05-20T00:36:03;98491.81;;;17.53;62.06
9091;BME280;4581;42.416;25.598;2023-05-20T00:38:30;98488.03;;;17.54;62.75
9091;BME280;4581;42.416;25.598;2023-05-20T00:40:56;98486.22;;;17.48;62.76
9091;BME280;4581;42.416;25.598;2023-05-20T00:43:23;98487.66;;;17.51;63.05
9091;BME280;4581;42.416;25.598;2023-05-20T00:45:52;98485.97;;;17.50;62.83
9091;BME280;4581;42.416;25.598;2023-05-20T00:48:19;98478.63;;;17.50;63.05
9091;BME280;4581;42.416;25.598;2023-05-20T00:50:48;98488.56;;;17.45;64.28
9091;BME280;4581;42.416;25.598;2023-05-20T00:53:16;98476.19;;;17.42;64.20
9091;BME280;4581;42.416;25.598;2023-05-20T00:55:44;98483.94;;;17.45;64.20
9091;BME280;4581;42.416;25.598;2023-05-20T00:58:11;98486.88;;;17.44;64.73
9091;BME280;4581;42.416;25.598;2023-05-20T01:00:38;98488.16;;;17.41;65.40
9091;BME280;4581;42.416;25.598;2023-05-20T01:03:04;98484.41;;;17.36;65.84
9091;BME280;4581;42.416;25.598;2023-05-20T01:05:31;98491.56;;;17.30;67.13
9091;BME280;4581;42.416;25.598;2023-05-20T01:07:59;98486.56;;;17.27;67.16
9091;BME280;4581;42.416;25.598;2023-05-20T01:10:27;98479.03;;;17.29;67.12
9091;BME280;4581;42.416;25.598;2023-05-20T01:12:57;98485.47;;;17.35;67.90
9091;BME280;4581;42.416;25.598;2023-05-20T01:15:28;98472.34;;;17.25;67.96
9091;BME280;4581;42.416;25.598;2023-05-20T01:17:57;98478.19;;;17.22;69.04
9091;BME280;4581;42.416;25.598;2023-05-20T01:20:27;98469.25;;;17.15;69.74
9091;BME280;4581;42.416;25.598;2023-05-20T01:22:58;98459.84;;;17.11;68.95
9091;BME280;4581;42.416;25.598;2023-05-20T01:25:25;98455.81;;;17.20;68.43
9091;BME280;4581;42.416;25.598;2023-05-20T01:27:53;98456.00;;;17.25;67.88
9091;BME280;4581;42.416;25.598;2023-05-20T01:30:21;98456.19;;;17.23;68.27
9091;BME280;4581;42.416;25.598;2023-05-20T01:32:52;98458.09;;;17.23;67.89
9091;BME280;4581;42.416;25.598;2023-05-20T01:35:21;98454.31;;;17.24;67.63
9091;BME280;4581;42.416;25.598;2023-05-20T01:37:49;98454.91;;;17.26;67.84
9091;BME280;4581;42.416;25.598;2023-05-20T01:40:18;98451.78;;;17.29;67.42
9091;BME280;4581;42.416;25.598;2023-05-20T01:42:45;98479.03;;;17.29;68.27
9091;BME280;4581;42.416;25.598;2023-05-20T01:45:12;98490.53;;;17.31;68.41
9091;BME280;4581;42.416;25.598;2023-05-20T01:47:38;98498.34;;;17.21;68.76
9091;BME280;4581;42.416;25.598;2023-05-20T01:50:05;98493.50;;;17.23;68.92
9091;BME280;4581;42.416;25.598;2023-05-20T01:52:32;98507.53;;;17.26;68.24
9091;BME280;4581;42.416;25.598;2023-05-20T01:54:59;98510.88;;;17.28;67.99
9091;BME280;4581;42.416;25.598;2023-05-20T01:57:26;98521.53;;;17.30;68.57
9091;BME280;4581;42.416;25.598;2023-05-20T01:59:52;98518.22;;;17.21;69.55
9091;BME280;4581;42.416;25.598;2023-05-20T02:02:19;98519.72;;;17.17;69.87
9091;BME280;4581;42.416;25.598;2023-05-20T02:04:48;98525.41;;;17.16;70.25
9091;BME280;4581;42.416;25.598;2023-05-20T02:07:16;98529.44;;;17.07;71.29
9091;BME280;4581;42.416;25.598;2023-05-20T02:09:46;98527.00;;;16.92;71.79
9091;BME280;4581;42.416;25.598;2023-05-20T02:12:13;98513.22;;;16.80;72.40
9091;BME280;4581;42.416;25.598;2023-05-20T02:14:43;98516.97;;;16.79;73.38
9091;BME280;4581;42.416;25.598;2023-05-20T02:17:11;98523.47;;;16.78;74.25
9091;BME280;4581;42.416;25.598;2023-05-20T02:19:39;98520.38;;;16.68;74.89
9091;BME280;4581;42.416;25.598;2023-05-20T02:22:06;98524.38;;;16.59;75.62
9091;BME280;4581;42.416;25.598;2023-05-20T02:24:33;98531.28;;;16.55;76.88
9091;BME280;4581;42.416;25.598;2023-05-20T02:27:00;98518.94;;;16.53;77.34
9091;BME280;4581;42.416;25.598;2023-05-20T02:29:28;98531.28;;;16.49;78.45
9091;BME280;4581;42.416;25.598;2023-05-20T02:31:55;98528.56;;;16.42;78.79
9091;BME280;4581;42.416;25.598;2023-05-20T02:34:22;98528.16;;;16.38;79.35
9091;BME280;4581;42.416;25.598;2023-05-20T02:36:48;98516.03;;;16.34;79.78
9091;BME280;4581;42.416;25.598;2023-05-20T02:39:15;98516.44;;;16.38;80.09
9091;BME280;4581;42.416;25.598;2023-05-20T02:41:42;98518.78;;;16.28;80.40
9091;BME280;4581;42.416;25.598;2023-05-20T02:44:08;98512.47;;;16.21;81.39
9091;BME280;4581;42.416;25.598;2023-05-20T02:46:35;98508.94;;;16.14;81.99
9091;BME280;4581;42.416;25.598;2023-05-20T02:49:02;98516.09;;;16.08;82.37
9091;BME280;4581;42.416;25.598;2023-05-20T02:51:29;98508.34;;;15.99;82.82
9091;BME280;4581;42.416;25.598;2023-05-20T02:53:57;98516.94;;;15.96;83.22
9091;BME280;4581;42.416;25.598;2023-05-20T02:56:24;98514.22;;;15.96;82.87
9091;BME280;4581;42.416;25.598;2023-05-20T02:58:52;98521.31;;;15.90;81.70
9091;BME280;4581;42.416;25.598;2023-05-20T03:01:19;98527.41;;;15.92;82.00
9091;BME280;4581;42.416;25.598;2023-05-20T03:03:45;98530.50;;;16.02;82.83
9091;BME280;4581;42.416;25.598;2023-05-20T03:06:12;98542.44;;;15.95;81.79
9091;BME280;4581;42.416;25.598;2023-05-20T03:08:39;98548.91;;;15.93;83.15
9091;BME280;4581;42.416;25.598;2023-05-20T03:11:08;98550.59;;;15.88;84.19
9091;BME280;4581;42.416;25.598;2023-05-20T03:13:35;98546.84;;;15.76;84.35
9091;BME280;4581;42.416;25.598;2023-05-20T03:16:01;98536.59;;;15.71;84.35
9091;BME280;4581;42.416;25.598;2023-05-20T03:18:28;98528.84;;;15.75;83.41
9091;BME280;4581;42.416;25.598;2023-05-20T03:20:55;98527.78;;;15.69;83.54
9091;BME280;4581;42.416;25.598;2023-05-20T03:23:22;98530.94;;;15.66;83.73
9091;BME280;4581;42.416;25.598;2023-05-20T03:25:48;98525.06;;;15.63;83.86
9091;BME280;4581;42.416;25.598;2023-05-20T03:28:15;98531.78;;;15.60;83.87
9091;BME280;4581;42.416;25.598;2023-05-20T03:30:42;98528.41;;;15.58;83.77
9091;BME280;4581;42.416;25.598;2023-05-20T03:33:09;98528.41;;;15.58;84.02
9091;BME280;4581;42.416;25.598;2023-05-20T03:35:36;98518.38;;;15.52;84.48
9091;BME280;4581;42.416;25.598;2023-05-20T03:38:03;98532.75;;;15.46;85.21
9091;BME280;4581;42.416;25.598;2023-05-20T03:40:29;98530.03;;;15.46;84.60
9091;BME280;4581;42.416;25.598;2023-05-20T03:42:56;98534.63;;;15.39;85.51
9091;BME280;4581;42.416;25.598;2023-05-20T03:45:23;98529.38;;;15.31;85.44
9091;BME280;4581;42.416;25.598;2023-05-20T03:47:49;98517.03;;;15.22;85.70
9091;BME280;4581;42.416;25.598;2023-05-20T03:50:17;98521.84;;;15.26;85.82
9091;BME280;4581;42.416;25.598;2023-05-20T03:52:43;98523.28;;;15.29;85.54
9091;BME280;4581;42.416;25.598;2023-05-20T03:55:10;98532.53;;;15.41;85.60
9091;BME280;4581;42.416;25.598;2023-05-20T03:57:37;98530.44;;;15.43;85.20
9091;BME280;4581;42.416;25.598;2023-05-20T04:00:04;98538.59;;;15.43;85.31
9091;BME280;4581;42.416;25.598;2023-05-20T04:02:36;98546.34;;;15.46;85.93
9091;BME280;4581;42.416;25.598;2023-05-20T04:05:04;98559.13;;;15.59;85.16
9091;BME280;4581;42.416;25.598;2023-05-20T04:07:31;98560.41;;;15.63;84.85
9091;BME280;4581;42.416;25.598;2023-05-20T04:09:58;98566.50;;;15.84;84.22
9091;BME280;4581;42.416;25.598;2023-05-20T04:12:24;98569.84;;;15.93;84.16
9091;BME280;4581;42.416;25.598;2023-05-20T04:14:59;98552.06;;;15.97;84.50
9091;BME280;4581;42.416;25.598;2023-05-20T04:17:30;98559.19;;;16.11;84.21
9091;BME280;4581;42.416;25.598;2023-05-20T04:19:57;98557.28;;;16.12;84.07
9091;BME280;4581;42.416;25.598;2023-05-20T04:22:25;98566.91;;;16.21;83.66
9091;BME280;4581;42.416;25.598;2023-05-20T04:24:52;98561.03;;;16.17;83.41
9091;BME280;4581;42.416;25.598;2023-05-20T04:27:19;98558.94;;;16.26;82.58
9091;BME280;4581;42.416;25.598;2023-05-20T04:29:47;98548.28;;;16.24;83.15
9091;BME280;4581;42.416;25.598;2023-05-20T04:32:16;98547.00;;;16.33;83.11
9091;BME280;4581;42.416;25.598;2023-05-20T04:34:44;98541.16;;;16.30;83.47
9091;BME280;4581;42.416;25.598;2023-05-20T04:37:12;98534.66;;;16.31;83.06
9091;BME280;4581;42.416;25.598;2023-05-20T04:39:39;98547.00;;;16.47;81.40
9091;BME280;4581;42.416;25.598;2023-05-20T04:42:05;98557.03;;;16.53;82.23
9091;BME280;4581;42.416;25.598;2023-05-20T04:44:32;98550.31;;;16.55;81.47
9091;BME280;4581;42.416;25.598;2023-05-20T04:47:00;98557.66;;;16.61;82.48
9091;BME280;4581;42.416;25.598;2023-05-20T04:49:27;98551.16;;;16.62;81.53
9091;BME280;4581;42.416;25.598;2023-05-20T04:51:56;98547.59;;;16.68;80.22
9091;BME280;4581;42.416;25.598;2023-05-20T04:54:24;98558.44;;;16.81;78.98
9091;BME280;4581;42.416;25.598;2023-05-20T04:56:50;98561.16;;;16.81;80.50
9091;BME280;4581;42.416;25.598;2023-05-20T04:59:17;98565.56;;;16.82;80.58
9091;BME280;4581;42.416;25.598;2023-05-20T05:01:44;98571.84;;;16.83;81.97
9091;BME280;4581;42.416;25.598;2023-05-20T05:04:11;98581.88;;;16.89;80.62
9091;BME280;4581;42.416;25.598;2023-05-20T05:06:37;98573.94;;;16.88;80.71
9091;BME280;4581;42.416;25.598;2023-05-20T05:09:04;98578.13;;;16.83;79.93
9091;BME280;4581;42.416;25.598;2023-05-20T05:11:31;98581.47;;;16.92;80.12
9091;BME280;4581;42.416;25.598;2023-05-20T05:13:58;98567.19;;;16.97;81.01
9091;BME280;4581;42.416;25.598;2023-05-20T05:16:24;98558.56;;;17.06;81.64
9091;BME280;4581;42.416;25.598;2023-05-20T05:18:51;98558.75;;;17.11;82.49
9091;BME280;4581;42.416;25.598;2023-05-20T05:21:18;98560.59;;;17.17;82.86
9091;BME280;4581;42.416;25.598;2023-05-20T05:23:45;98557.88;;;17.17;82.14
9091;BME280;4581;42.416;25.598;2023-05-20T05:26:11;98569.19;;;17.21;78.54
9091;BME280;4581;42.416;25.598;2023-05-20T05:28:40;98576.44;;;17.33;79.10
9091;BME280;4581;42.416;25.598;2023-05-20T05:31:08;98581.00;;;17.46;78.34
9091;BME280;4581;42.416;25.598;2023-05-20T05:33:35;98591.22;;;17.57;77.29
9091;BME280;4581;42.416;25.598;2023-05-20T05:36:01;98590.13;;;17.71;77.07
9091;BME280;4581;42.416;25.598;2023-05-20T05:38:30;98599.09;;;17.78;77.63
9091;BME280;4581;42.416;25.598;2023-05-20T05:40:56;98599.44;;;17.89;74.16
9091;BME280;4581;42.416;25.598;2023-05-20T05:43:23;98593.38;;;18.11;72.30
9091;BME280;4581;42.416;25.598;2023-05-20T05:45:50;98602.84;;;18.34;70.69
9091;BME280;4581;42.416;25.598;2023-05-20T05:48:17;98596.63;;;18.51;71.03
9091;BME280;4581;42.416;25.598;2023-05-20T05:50:45;98599.09;;;18.59;70.45
9091;BME280;4581;42.416;25.598;2023-05-20T05:53:11;98596.38;;;18.78;69.58
9091;BME280;4581;42.416;25.598;2023-05-20T05:55:38;98593.13;;;18.87;68.70
9091;BME280;4581;42.416;25.598;2023-05-20T05:58:05;98588.34;;;19.19;69.17
9091;BME280;4581;42.416;25.598;2023-05-20T06:00:32;98598.66;;;19.95;66.33
9091;BME280;4581;42.416;25.598;2023-05-20T06:02:58;98582.50;;;20.58;65.79
9091;BME280;4581;42.416;25.598;2023-05-20T06:05:25;98579.47;;;20.94;60.34
9091;BME280;4581;42.416;25.598;2023-05-20T06:07:55;98599.13;;;21.55;60.55
9091;BME280;4581;42.416;25.598;2023-05-20T06:10:22;98599.69;;;21.68;56.65
9091;BME280;4581;42.416;25.598;2023-05-20T06:12:48;98597.19;;;21.95;60.76
9091;BME280;4581;42.416;25.598;2023-05-20T06:15:15;98616.09;;;21.91;57.23
9091;BME280;4581;42.416;25.598;2023-05-20T06:17:42;98609.97;;;22.01;54.14
9091;BME280;4581;42.416;25.598;2023-05-20T06:20:09;98606.59;;;21.99;54.75
9091;BME280;4581;42.416;25.598;2023-05-20T06:22:36;98608.22;;;22.28;55.10
9091;BME280;4581;42.416;25.598;2023-05-20T06:25:02;98613.75;;;22.45;52.32
9091;BME280;4581;42.416;25.598;2023-05-20T06:27:29;98604.47;;;22.68;56.47
9091;BME280;4581;42.416;25.598;2023-05-20T06:29:56;98607.72;;;22.98;54.22
9091;BME280;4581;42.416;25.598;2023-05-20T06:32:23;98613.56;;;22.85;51.15
9091;BME280;4581;42.416;25.598;2023-05-20T06:34:50;98610.41;;;22.76;52.94
9091;BME280;4581;42.416;25.598;2023-05-20T06:37:16;98616.41;;;22.40;52.44
9091;BME280;4581;42.416;25.598;2023-05-20T06:39:43;98600.63;;;22.19;53.32
9091;BME280;4581;42.416;25.598;2023-05-20T06:42:12;98604.75;;;22.33;53.03
9091;BME280;4581;42.416;25.598;2023-05-20T06:44:38;98595.91;;;22.81;51.84
9091;BME280;4581;42.416;25.598;2023-05-20T06:47:05;98603.81;;;23.16;51.15
9091;BME280;4581;42.416;25.598;2023-05-20T06:49:31;98606.44;;;23.44;48.90
9091;BME280;4581;42.416;25.598;2023-05-20T06:51:58;98615.31;;;23.51;49.66
9091;BME280;4581;42.416;25.598;2023-05-20T06:54:25;98607.91;;;23.52;49.19
9091;BME280;4581;42.416;25.598;2023-05-20T06:56:51;98611.25;;;23.81;47.01
9091;BME280;4581;42.416;25.598;2023-05-20T06:59:18;98605.38;;;23.72;49.79
9091;BME280;4581;42.416;25.598;2023-05-20T07:01:45;98604.91;;;23.80;51.75
9091;BME280;4581;42.416;25.598;2023-05-20T07:04:11;98607.50;;;23.87;49.43
9091;BME280;4581;42.416;25.598;2023-05-20T07:06:38;98597.41;;;23.97;48.45
9091;BME280;4581;42.416;25.598;2023-05-20T07:09:05;98611.16;;;23.70;49.81
9091;BME280;4581;42.416;25.598;2023-05-20T07:11:32;98618.44;;;23.38;49.58
9091;BME280;4581;42.416;25.598;2023-05-20T07:13:59;98619.25;;;23.17;49.20
9091;BME280;4581;42.416;25.598;2023-05-20T07:16:25;98621.59;;;22.70;50.46
9091;BME280;4581;42.416;25.598;2023-05-20T07:18:52;98619.34;;;22.50;50.67
9091;BME280;4581;42.416;25.598;2023-05-20T07:21:19;98607.66;;;22.43;49.21
9091;BME280;4581;42.416;25.598;2023-05-20T07:23:45;98611.84;;;22.46;51.04
9091;BME280;4581;42.416;25.598;2023-05-20T07:26:12;98617.41;;;22.51;51.49
9091;BME280;4581;42.416;25.598;2023-05-20T07:28:39;98606.13;;;22.19;51.56
9091;BME280;4581;42.416;25.598;2023-05-20T07:31:05;98635.53;;;22.18;52.44
9091;BME280;4581;42.416;25.598;2023-05-20T07:33:32;98626.38;;;22.13;52.46
9091;BME280;4581;42.416;25.598;2023-05-20T07:35:59;98631.09;;;22.01;53.67
9091;BME280;4581;42.416;25.598;2023-05-20T07:38:26;98626.09;;;21.98;53.84
9091;BME280;4581;42.416;25.598;2023-05-20T07:40:52;98632.09;;;21.95;53.60
9091;BME280;4581;42.416;25.598;2023-05-20T07:43:19;98632.47;;;21.75;53.64
9091;BME280;4581;42.416;25.598;2023-05-20T07:45:46;98642.38;;;21.76;54.69
9091;BME280;4581;42.416;25.598;2023-05-20T07:48:12;98638.94;;;21.69;54.93
9091;BME280;4581;42.416;25.598;2023-05-20T07:50:39;98643.78;;;21.50;53.89
9091;BME280;4581;42.416;25.598;2023-05-20T07:53:06;98641.88;;;21.39;55.00
9091;BME280;4581;42.416;25.598;2023-05-20T07:55:34;98638.09;;;21.40;53.77
9091;BME280;4581;42.416;25.598;2023-05-20T07:58:02;98643.47;;;21.23;54.21
9091;BME280;4581;42.416;25.598;2023-05-20T08:00:29;98641.59;;;21.12;54.69
9091;BME280;4581;42.416;25.598;2023-05-20T08:02:56;98640.38;;;21.08;55.87
9091;BME280;4581;42.416;25.598;2023-05-20T08:05:23;98639.66;;;21.01;57.08
9091;BME280;4581;42.416;25.598;2023-05-20T08:07:50;98641.22;;;20.97;58.20
9091;BME280;4581;42.416;25.598;2023-05-20T08:10:17;98633.84;;;20.86;59.33
9091;BME280;4581;42.416;25.598;2023-05-20T08:12:45;98626.94;;;21.18;60.85
9091;BME280;4581;42.416;25.598;2023-05-20T08:15:12;98619.25;;;21.32;59.80
9091;BME280;4581;42.416;25.598;2023-05-20T08:17:39;98620.13;;;21.61;58.78
9091;BME280;4581;42.416;25.598;2023-05-20T08:20:06;98621.94;;;21.83;55.71
9091;BME280;4581;42.416;25.598;2023-05-20T08:22:38;98628.38;;;21.89;57.76
9091;BME280;4581;42.416;25.598;2023-05-20T08:27:34;98622.22;;;22.10;57.14
9091;BME280;4581;42.416;25.598;2023-05-20T08:30:03;98626.16;;;22.03;55.83
9091;BME280;4581;42.416;25.598;2023-05-20T08:32:30;98638.00;;;22.03;53.96
9091;BME280;4581;42.416;25.598;2023-05-20T08:34:57;98627.75;;;21.70;55.90
9091;BME280;4581;42.416;25.598;2023-05-20T08:37:27;98628.38;;;21.89;56.86
9091;BME280;4581;42.416;25.598;2023-05-20T08:39:54;98622.19;;;21.93;56.47
9091;BME280;4581;42.416;25.598;2023-05-20T08:42:22;98629.34;;;21.83;54.83
9091;BME280;4581;42.416;25.598;2023-05-20T08:44:51;98623.03;;;21.54;56.73
9091;BME280;4581;42.416;25.598;2023-05-20T08:47:21;98626.31;;;21.68;58.82
9091;BME280;4581;42.416;25.598;2023-05-20T08:49:48;98626.59;;;21.83;56.50
9091;BME280;4581;42.416;25.598;2023-05-20T08:52:20;98635.69;;;22.12;57.16
9091;BME280;4581;42.416;25.598;2023-05-20T08:54:48;98638.69;;;22.10;54.24
9091;BME280;4581;42.416;25.598;2023-05-20T08:57:15;98633.50;;;21.97;54.21
9091;BME280;4581;42.416;25.598;2023-05-20T08:59:43;98634.44;;;21.91;55.44
9091;BME280;4581;42.416;25.598;2023-05-20T09:02:10;98629.44;;;21.88;55.01
9091;BME280;4581;42.416;25.598;2023-05-20T09:04:37;98624.50;;;21.73;55.74
9091;BME280;4581;42.416;25.598;2023-05-20T09:07:04;98631.00;;;21.56;56.13
9091;BME280;4581;42.416;25.598;2023-05-20T09:09:32;98608.91;;;21.22;56.59
9091;BME280;4581;42.416;25.598;2023-05-20T09:12:00;98616.06;;;21.00;58.45
9091;BME280;4581;42.416;25.598;2023-05-20T09:14:29;98601.19;;;20.73;58.65
9091;BME280;4581;42.416;25.598;2023-05-20T09:16:56;98611.53;;;20.71;60.27
9091;BME280;4581;42.416;25.598;2023-05-20T09:19:23;98605.81;;;20.37;60.61
9091;BME280;4581;42.416;25.598;2023-05-20T09:21:52;98600.06;;;20.27;62.24
9091;BME280;4581;42.416;25.598;2023-05-20T09:24:22;98609.09;;;20.28;61.78
9091;BME280;4581;42.416;25.598;2023-05-20T09:26:50;98603.25;;;20.13;62.56
9091;BME280;4581;42.416;25.598;2023-05-20T09:29:16;98608.94;;;20.11;66.45
9091;BME280;4581;42.416;25.598;2023-05-20T09:31:47;98601.31;;;20.01;64.48
9091;BME280;4581;42.416;25.598;2023-05-20T09:34:15;98602.59;;;19.99;65.62
9091;BME280;4581;42.416;25.598;2023-05-20T09:36:43;98599.47;;;19.84;65.96
9091;BME280;4581;42.416;25.598;2023-05-20T09:39:15;98588.50;;;19.72;65.84
9091;BME280;4581;42.416;25.598;2023-05-20T09:44:23;98580.09;;;19.55;68.67
9091;BME280;4581;42.416;25.598;2023-05-20T09:46:50;98569.16;;;19.55;68.83
9091;BME280;4581;42.416;25.598;2023-05-20T09:49:19;98573.06;;;19.48;67.85
9091;BME280;4581;42.416;25.598;2023-05-20T09:51:48;98563.78;;;19.49;67.55
9091;BME280;4581;42.416;25.598;2023-05-20T09:54:20;98553.28;;;19.46;68.29
9091;BME280;4581;42.416;25.598;2023-05-20T09:56:48;98563.44;;;19.45;67.61
9091;BME280;4581;42.416;25.598;2023-05-20T09:59:15;98554.13;;;19.46;65.42
9091;BME280;4581;42.416;25.598;2023-05-20T10:01:43;98560.69;;;19.45;66.04
9091;BME280;4581;42.416;25.598;2023-05-20T10:04:13;98531.06;;;19.42;66.46
9091;BME280;4581;42.416;25.598;2023-05-20T10:15:48;98554.69;;;19.67;65.70
9091;BME280;4581;42.416;25.598;2023-05-20T10:18:38;98564.84;;;19.78;64.52
9091;BME280;4581;42.416;25.598;2023-05-20T10:21:19;98566.66;;;19.95;62.83
9091;BME280;4581;42.416;25.598;2023-05-20T10:23:47;98569.34;;;20.14;62.20
9091;BME280;4581;42.416;25.598;2023-05-20T10:26:14;98561.53;;;20.40;60.10
9091;BME280;4581;42.416;25.598;2023-05-20T10:28:41;98562.22;;;20.71;59.09
9091;BME280;4581;42.416;25.598;2023-05-20T10:31:16;98560.88;;;20.96;57.02
9091;BME280;4581;42.416;25.598;2023-05-20T10:33:44;98564.00;;;21.40;59.02
9091;BME280;4581;42.416;25.598;2023-05-20T10:36:44;98562.53;;;21.77;55.90
9091;BME280;4581;42.416;25.598;2023-05-20T10:39:14;98557.06;;;22.22;56.79
9091;BME280;4581;42.416;25.598;2023-05-20T10:41:42;98562.03;;;22.59;55.36
9091;BME280;4581;42.416;25.598;2023-05-20T10:44:09;98574.13;;;22.74;54.15
9091;BME280;4581;42.416;25.598;2023-05-20T10:46:36;98565.53;;;22.54;51.90
9091;BME280;4581;42.416;25.598;2023-05-20T10:49:23;98562.88;;;22.26;52.52
9091;BME280;4581;42.416;25.598;2023-05-20T10:51:53;98564.59;;;22.15;53.24
9091;BME280;4581;42.416;25.598;2023-05-20T10:54:21;98570.34;;;21.97;53.64
9091;BME280;4581;42.416;25.598;2023-05-20T10:56:52;98572.47;;;21.67;52.89
9091;BME280;4581;42.416;25.598;2023-05-20T10:59:19;98570.97;;;21.59;55.98
9091;BME280;4581;42.416;25.598;2023-05-20T11:01:47;98566.81;;;21.57;54.63
9091;BME280;4581;42.416;25.598;2023-05-20T11:04:15;98559.53;;;21.51;55.23
9091;BME280;4581;42.416;25.598;2023-05-20T11:06:52;98574.16;;;21.39;55.41
9091;BME280;4581;42.416;25.598;2023-05-20T11:09:20;98583.47;;;21.27;55.93
9091;BME280;4581;42.416;25.598;2023-05-20T11:11:46;98570.66;;;21.16;56.79
9091;BME280;4581;42.416;25.598;2023-05-20T11:14:13;98578.28;;;20.90;57.17
9091;BME280;4581;42.416;25.598;2023-05-20T11:16:41;98576.75;;;20.83;61.36
9091;BME280;4581;42.416;25.598;2023-05-20T11:19:13;98574.84;;;20.83;60.76
9091;BME280;4581;42.416;25.598;2023-05-20T11:21:44;98574.03;;;20.71;58.16
9091;BME280;4581;42.416;25.598;2023-05-20T11:24:12;98571.06;;;20.73;60.45
9091;BME280;4581;42.416;25.598;2023-05-20T11:26:39;98570.44;;;20.71;62.25
9091;BME280;4581;42.416;25.598;2023-05-20T11:29:06;98570.56;;;20.76;59.50
9091;BME280;4581;42.416;25.598;2023-05-20T11:31:33;98575.22;;;20.75;59.75
9091;BME280;4581;42.416;25.598;2023-05-20T11:34:00;98569.47;;;20.88;59.39
9091;BME280;4581;42.416;25.598;2023-05-20T11:36:27;98570.75;;;21.09;60.28
9091;BME280;4581;42.416;25.598;2023-05-20T11:38:56;98556.22;;;21.20;55.52
9091;BME280;4581;42.416;25.598;2023-05-20T11:41:24;98556.84;;;21.39;54.04
9091;BME280;4581;42.416;25.598;2023-05-20T11:43:58;98545.53;;;21.64;56.66
9091;BME280;4581;42.416;25.598;2023-05-20T11:46:26;98549.91;;;21.76;55.71
9091;BME280;4581;42.416;25.598;2023-05-20T11:48:53;98532.97;;;21.96;54.41
9091;BME280;4581;42.416;25.598;2023-05-20T11:51:26;98531.22;;;22.07;53.83
9091;BME280;4581;42.416;25.598;2023-05-20T11:53:59;98535.00;;;22.34;53.73
9091;BME280;4581;42.416;25.598;2023-05-20T11:56:31;98524.88;;;22.56;52.31
9091;BME280;4581;42.416;25.598;2023-05-20T11:58:59;98536.63;;;22.52;52.52
9091;BME280;4581;42.416;25.598;2023-05-20T12:01:29;98530.56;;;22.50;52.27
9091;BME280;4581;42.416;25.598;2023-05-20T12:03:56;98519.50;;;22.83;51.94
9091;BME280;4581;42.416;25.598;2023-05-20T12:06:23;98512.91;;;23.27;49.40
9091;BME280;4581;42.416;25.598;2023-05-20T12:08:49;98516.31;;;23.35;49.59
9091;BME280;4581;42.416;25.598;2023-05-20T12:11:16;98515.09;;;23.47;48.13
9091;BME280;4581;42.416;25.598;2023-05-20T12:13:43;98512.63;;;24.04;47.14
9091;BME280;4581;42.416;25.598;2023-05-20T12:16:10;98512.81;;;24.24;48.23
9091;BME280;4581;42.416;25.598;2023-05-20T12:18:36;98520.13;;;23.82;46.28
9091;BME280;4581;42.416;25.598;2023-05-20T12:21:03;98500.31;;;23.53;49.34
9091;BME280;4581;42.416;25.598;2023-05-20T12:23:30;98509.75;;;23.62;49.21
9091;BME280;4581;42.416;25.598;2023-05-20T12:25:59;98508.94;;;23.62;48.83
9091;BME280;4581;42.416;25.598;2023-05-20T12:28:26;98501.97;;;23.54;48.24
9091;BME280;4581;42.416;25.598;2023-05-20T12:30:53;98498.44;;;23.59;46.99
9091;BME280;4581;42.416;25.598;2023-05-20T12:33:20;98494.50;;;23.50;47.30
9091;BME280;4581;42.416;25.598;2023-05-20T12:35:46;98485.00;;;23.41;47.10
9091;BME280;4581;42.416;25.598;2023-05-20T12:38:13;98470.94;;;23.15;48.02
9091;BME280;4581;42.416;25.598;2023-05-20T12:40:40;98486.06;;;23.13;47.74
9091;BME280;4581;42.416;25.598;2023-05-20T12:43:06;98479.19;;;23.15;47.43
9091;BME280;4581;42.416;25.598;2023-05-20T12:45:33;98473.00;;;23.25;49.43
9091;BME280;4581;42.416;25.598;2023-05-20T12:48:00;98462.38;;;23.33;47.19
9091;BME280;4581;42.416;25.598;2023-05-20T12:50:27;98465.44;;;23.64;47.18
9091;BME280;4581;42.416;25.598;2023-05-20T12:52:54;98462.69;;;23.64;48.10
9091;BME280;4581;42.416;25.598;2023-05-20T12:55:21;98446.22;;;23.69;47.81
9091;BME280;4581;42.416;25.598;2023-05-20T12:57:48;98449.81;;;23.69;46.67
9091;BME280;4581;42.416;25.598;2023-05-20T13:00:16;98437.53;;;23.50;47.86
9091;BME280;4581;42.416;25.598;2023-05-20T13:02:43;98437.78;;;23.49;48.07
9091;BME280;4581;42.416;25.598;2023-05-20T13:05:09;98444.47;;;23.58;46.65
9091;BME280;4581;42.416;25.598;2023-05-20T13:07:37;98455.97;;;23.82;47.12
9091;BME280;4581;42.416;25.598;2023-05-20T13:10:05;98456.69;;;23.67;48.29
9091;BME280;4581;42.416;25.598;2023-05-20T13:12:33;98444.06;;;23.76;47.26
9091;BME280;4581;42.416;25.598;2023-05-20T13:15:00;98441.94;;;23.83;48.00
9091;BME280;4581;42.416;25.598;2023-05-20T13:17:27;98442.25;;;23.87;48.10
9091;BME280;4581;42.416;25.598;2023-05-20T13:19:54;98447.94;;;23.75;46.48
9091;BME280;4581;42.416;25.598;2023-05-20T13:22:21;98440.84;;;23.84;47.48
9091;BME280;4581;42.416;25.598;2023-05-20T13:24:48;98440.94;;;23.99;47.29
9091;BME280;4581;42.416;25.598;2023-05-20T13:27:15;98433.69;;;23.83;47.43